Aeroboteco Virtual Airline

Aeroboteco Virtual Airlines! Uma nuvem a frente.



 INFORMAÇÕES METEOROLÓGICAS
METAR FOR LYBE
ADDS - METARS form results

(1023 UTC 16 January 2019)
Data provider http://aviationweather.gov/metar/data/
 
METAR text: LYBE 161000Z 26009KT CAVOK 04/M03 Q1017 NOSIG
Conditions at: LYBE (BELGRADE/SURCIN , CS) observed 1000 UTC 16 January 2019
Temperature: 4.0°C (39°F)
Dewpoint: -3.0°C (27°F) [RH = 60%]
Pressure (altimeter): 30.03 inches Hg (1017.0 mb)
Winds: from the W (260 degrees) at 10 MPH (9 knots; 4.6 m/s)
Visibility: 6 or more miles (10+ km)
Ceiling: ceiling and visibility are OK
Clouds: unknown
Weather: no significant weather observed at this time

METAR text: LYBE 160930Z 26009KT CAVOK 04/M04 Q1017 NOSIG
Conditions at: LYBE (BELGRADE/SURCIN , CS) observed 0930 UTC 16 January 2019
Temperature: 4.0°C (39°F)
Dewpoint: -4.0°C (25°F) [RH = 56%]
Pressure (altimeter): 30.03 inches Hg (1017.0 mb)
Winds: from the W (260 degrees) at 10 MPH (9 knots; 4.6 m/s)
Visibility: 6 or more miles (10+ km)
Ceiling: ceiling and visibility are OK
Clouds: unknown
Weather: no significant weather observed at this time

Forecast for: COR
Text: TAF COR LYBE 160600Z 1606/1706 23008KT 9999 SCT040 TX06/1613Z TNM01/1706Z
Forecast period: 0600 to 2100 UTC 16 January 2019
Forecast type: FROM: standard forecast or significant change
Winds: from the SW (230 degrees) at 9 MPH (8 knots; 4.1 m/s)
Visibility: 6 or more miles 10+ km)
Ceiling: at least 12,000 feet AGL
Clouds: scattered clouds at 4000 feet AGL
Weather: no significant weather forecast for this period
Text: BECMG 1621/1623 5000 BR
Forecast period: 2100 UTC 16 January 2019 to 0600 UTC 17 January 2019
Forecast type: BECOMING: Conditions expected to become as follows by 2300 UTC 16 January 2019
Winds: from the SW (230 degrees) at 9 MPH (8 knots; 4.1 m/s)
Visibility: 3 miles (5 km)
Ceiling: at least 12,000 feet AGL
Clouds: scattered clouds at 4000 feet AGL
Weather: BR  (mist)
Text: TEMPO 1703/1706 2000
Forecast period: 0300 to 0600 UTC 17 January 2019
Forecast type: TEMPORARY: The following changes expected for less than half the time period
Visibility: 1.24 miles (2.00 km)
Ceiling: unknown
Clouds: missing
Weather: no significant weather forecast for this period

 MAPA DO AEROPORTO

 INFORMAÇÕES DA PISTA
Pista 12 Tamanho da pista 11155 ft Largura da pista 148 ft
Elevação da pista 318 ft Ranhura da pista 0 ft Proa da pista 122
Pista 30 Tamanho da pista 11155 ft Largura da pista 148 ft
Elevação da pista 335 ft Ranhura da pista 1312 ft Proa da pista 302

 FREQUÊNCIAS DO AEROPORTO
Tipo APP Nome APP Frequência 119.1 MHZ
Tipo ATIS Nome INFO Frequência 122.925 MHZ
Tipo TWR Nome TWR Frequência 118.1 MHZ

 AUXÍLIOS DE NAVEGAÇÃO PRÓXIMOS AO AEROPORTO
Tipo VOR-DME Nome Beograd Frequência 112300 KHZ
Tipo NDB Nome Beograd Frequência 316 KHZ
Tipo NDB Nome Beograd Frequência 380 KHZ
Tipo NDB Nome Beograd Frequência 355 KHZ